createdAt,value
2023-01-11T00:03:08.097Z,5.07
2023-01-11T00:08:27.456Z,5.1
2023-01-11T00:19:06.107Z,5.11
2023-01-11T00:29:44.617Z,5.13
2023-01-11T00:35:03.590Z,5.11
2023-01-11T00:45:41.959Z,5.13
2023-01-11T00:51:01.067Z,5.13
2023-01-11T01:01:39.150Z,5.14
2023-01-11T01:06:58.755Z,5.14
2023-01-11T01:17:37.738Z,5.11
2023-01-11T01:28:15.853Z,5.13
2023-01-11T01:33:34.640Z,5.14
2023-01-11T01:38:54.001Z,5.08
2023-01-11T01:44:12.775Z,5.13
2023-01-11T01:49:32.227Z,5.13
2023-01-11T01:54:52.033Z,5.13
2023-01-11T02:00:11.229Z,5.14
2023-01-11T02:10:50.139Z,5.15
2023-01-11T02:16:09.906Z,5.15
2023-01-11T02:26:49.355Z,5.17
2023-01-11T02:32:08.295Z,5.17
2023-01-11T02:42:46.872Z,5.21
2023-01-11T02:53:24.633Z,5.21
2023-01-11T02:58:44.060Z,5.21
2023-01-11T03:09:22.367Z,5.23
2023-01-11T03:14:42.069Z,5.24
2023-01-11T03:25:19.791Z,5.27
2023-01-11T03:41:17.158Z,5.27
2023-01-11T03:51:55.323Z,5.3
2023-01-11T03:57:14.537Z,5.32
2023-01-11T04:07:53.440Z,5.32
2023-01-11T04:13:13.166Z,5.32
2023-01-11T04:23:51.689Z,5.38
2023-01-11T04:34:29.373Z,5.39
2023-01-11T04:39:48.546Z,5.38
2023-01-11T04:45:07.474Z,5.41
2023-01-11T04:50:26.918Z,5.44
2023-01-11T04:55:46.360Z,5.42
2023-01-11T05:01:05.833Z,5.45
2023-01-11T05:11:44.054Z,5.45
2023-01-11T05:17:03.126Z,5.47
2023-01-11T05:27:41.463Z,5.49
2023-01-11T05:43:40.217Z,5.51
2023-01-11T05:54:18.904Z,5.54
2023-01-11T05:59:38.107Z,5.55
2023-01-11T06:10:17.207Z,5.55
2023-01-11T06:15:35.777Z,5.55
2023-01-11T06:26:14.023Z,5.55
2023-01-11T06:42:11.651Z,5.59
2023-01-11T06:52:50.293Z,5.59
2023-01-11T06:58:09.735Z,5.59
2023-01-11T07:08:48.047Z,5.65
2023-01-11T07:14:07.438Z,5.66
2023-01-11T07:19:27.088Z,5.66
2023-01-11T07:24:48.397Z,5.69
2023-01-11T07:35:28.152Z,5.72
2023-01-11T07:40:46.306Z,5.75
2023-01-11T07:51:24.287Z,5.76
2023-01-11T08:07:22.059Z,5.83
2023-01-11T08:18:00.668Z,5.88
2023-01-11T08:23:19.489Z,5.9
2023-01-11T08:33:59.180Z,5.99
2023-01-11T08:49:56.403Z,6.1
2023-01-11T09:05:54.090Z,6.22
2023-01-11T09:16:33.018Z,6.27
2023-01-11T09:21:52.367Z,6.32
2023-01-11T09:32:30.135Z,6.38
2023-01-11T09:43:09.069Z,6.43
2023-01-11T09:48:28.823Z,6.46
2023-01-11T09:59:07.466Z,6.47
2023-01-11T10:04:26.918Z,6.56
2023-01-11T10:18:24.684Z,6.58
2023-01-11T10:20:24.992Z,6.64
2023-01-11T10:31:03.160Z,6.71
2023-01-11T10:41:43.087Z,6.73
2023-01-11T10:47:00.257Z,6.78
2023-01-11T10:57:39.479Z,6.83
2023-01-11T11:13:36.834Z,6.94
2023-01-11T11:24:15.308Z,6.97
2023-01-11T11:34:54.202Z,7.02
2023-01-11T11:40:13.544Z,7.07
2023-01-11T11:50:52.339Z,7.09
2023-01-11T12:01:30.558Z,7.16
2023-01-11T12:06:49.397Z,7.19
2023-01-11T12:17:26.692Z,7.25
2023-01-11T12:33:23.797Z,7.35
2023-01-11T12:44:02.079Z,7.39
2023-01-11T12:49:21.010Z,7.45
2023-01-11T12:59:59.622Z,7.48
2023-01-11T13:05:18.844Z,7.51
2023-01-11T13:15:57.517Z,7.55
2023-01-11T13:31:56.315Z,7.63
2023-01-11T13:42:34.788Z,7.67
2023-01-11T13:47:55.701Z,7.67
2023-01-11T13:53:13.725Z,7.7
2023-01-11T13:58:34.175Z,7.72
2023-01-11T14:14:31.667Z,7.74
2023-01-11T14:25:09.159Z,7.79
2023-01-11T14:30:28.138Z,7.76
2023-01-11T14:41:06.691Z,7.79
2023-01-11T14:46:25.867Z,7.8
2023-01-11T14:57:04.287Z,7.77
2023-01-11T15:07:42.770Z,7.76
2023-01-11T15:13:01.878Z,7.77
2023-01-11T15:23:40.656Z,7.76
2023-01-11T15:28:59.439Z,7.74
2023-01-11T15:40:03.169Z,7.82
2023-01-11T15:45:22.724Z,7.67
2023-01-11T15:50:41.210Z,7.63
2023-01-11T15:56:00.070Z,7.62
2023-01-11T16:11:58.625Z,7.56
2023-01-11T16:22:36.686Z,7.49
2023-01-11T16:27:56.755Z,7.48
2023-01-11T16:38:34.484Z,7.42
2023-01-11T16:54:32.674Z,7.36
2023-01-11T17:10:30.583Z,7.31
2023-01-11T17:21:08.973Z,7.29
2023-01-11T17:37:06.739Z,7.22
2023-01-11T17:42:25.524Z,7.21
2023-01-11T17:47:45.279Z,7.21
2023-01-11T17:53:04.766Z,7.19
2023-01-11T18:03:42.823Z,7.14
2023-01-11T18:09:02.151Z,7.14
2023-01-11T18:24:59.801Z,7.07
2023-01-11T18:30:19.101Z,7.09
2023-01-11T18:40:58.177Z,7.01
2023-01-11T18:46:17.233Z,7.01
2023-01-11T18:56:55.773Z,6.95
2023-01-11T19:12:53.340Z,6.89
2023-01-11T19:18:12.390Z,6.88
2023-01-11T19:23:31.427Z,6.88
2023-01-11T19:28:50.680Z,6.85
2023-01-11T19:39:29.502Z,6.8
2023-01-11T19:55:27.375Z,6.7
2023-01-11T20:06:05.681Z,6.7
2023-01-11T20:11:25.466Z,6.68
2023-01-11T20:22:03.523Z,6.6
2023-01-11T20:27:23.143Z,6.58
2023-01-11T20:38:01.955Z,6.53
2023-01-11T20:43:20.901Z,6.51
2023-01-11T20:48:39.810Z,6.47
2023-01-11T20:53:58.602Z,6.41
2023-01-11T20:59:17.671Z,6.4
2023-01-11T21:04:36.730Z,6.38
2023-01-11T21:09:55.851Z,6.38
2023-01-11T21:20:34.112Z,6.37
2023-01-11T21:36:32.301Z,6.36
2023-01-11T21:52:30.833Z,6.33
2023-01-11T22:03:09.494Z,6.33
2023-01-11T22:08:28.742Z,6.34
2023-01-11T22:19:07.220Z,6.33
2023-01-11T22:35:05.043Z,6.32
2023-01-11T22:45:43.833Z,6.33
2023-01-11T22:51:03.040Z,6.32
2023-01-11T23:01:41.857Z,6.33
2023-01-11T23:07:00.845Z,6.34
2023-01-11T23:12:20.469Z,6.34
2023-01-11T23:17:39.912Z,6.33
2023-01-11T23:28:17.377Z,6.32
2023-01-11T23:33:36.746Z,6.36
2023-01-11T23:44:14.639Z,6.33
2023-01-11T23:49:33.575Z,6.34
